Terminal Aerodrome Forecast
Issued by NWS

Home | Current Version | Previous Version | Graphics & Text | Print | Product List | Glossary On
Versions: 1 2 3 4 5 6 7 8 9 10 11 12 13 14 15 16 17 18 19 20 21 22 23 24 25 26 27 28 29
000
FTUS43 KICT 232029 AAC
TAFHUT
TAF AMD
KHUT 232029Z 2320/2418 04010KT 3SM -RA BR VCTS SCT003 OVC025CB
     FM232200 08012KT 3SM -RA OVC004
     FM240300 15011KT 4SM BR VCSH OVC004
     FM240600 15008KT 1SM -DZ BR OVC001
     FM241500 16008KT 4SM BR OVC015=

USA.gov is the U.S. government's official web portal to all federal, state and local government web resources and services.